sensor_id;sensor_type;location;lat;lon;timestamp;pressure;altitude;pressure_sealevel;temperature;humidity
30714;BME280;17465;47.934;33.430;2023-05-23T00:00:43;57323.02;;;-140.43;82.75
30714;BME280;17465;47.934;33.430;2023-05-23T00:03:14;57336.79;;;-140.43;83.69
30714;BME280;17465;47.934;33.430;2023-05-23T00:05:44;57336.79;;;-140.43;83.69
30714;BME280;17465;47.934;33.430;2023-05-23T00:08:14;57320.90;;;-140.43;85.91
30714;BME280;17465;47.934;33.430;2023-05-23T00:10:45;57306.07;;;-140.43;84.84
30714;BME280;17465;47.934;33.430;2023-05-23T00:13:15;57342.08;;;-140.43;83.81
30714;BME280;17465;47.934;33.430;2023-05-23T00:15:46;57342.08;;;-140.43;83.81
30714;BME280;17465;47.934;33.430;2023-05-23T00:18:16;57306.07;;;-140.43;84.85
30714;BME280;17465;47.934;33.430;2023-05-23T00:20:46;57297.60;;;-140.43;84.90
30714;BME280;17465;47.934;33.430;2023-05-23T00:23:17;57314.55;;;-140.43;84.29
30714;BME280;17465;47.934;33.430;2023-05-23T00:25:47;57297.60;;;-140.43;85.25
30714;BME280;17465;47.934;33.430;2023-05-23T00:28:18;57330.43;;;-140.43;84.90
30714;BME280;17465;47.934;33.430;2023-05-23T00:30:48;57324.07;;;-140.43;84.88
30714;BME280;17465;47.934;33.430;2023-05-23T00:33:19;57324.07;;;-140.43;84.88
30714;BME280;17465;47.934;33.430;2023-05-23T00:35:49;57302.89;;;-140.43;85.84
30714;BME280;17465;47.934;33.430;2023-05-23T00:38:19;57303.95;;;-140.43;85.69
30714;BME280;17465;47.934;33.430;2023-05-23T00:40:50;57303.95;;;-140.43;85.69
30714;BME280;17465;47.934;33.430;2023-05-23T00:43:24;57317.72;;;-140.43;86.19
30714;BME280;17465;47.934;33.430;2023-05-23T00:45:54;57310.31;;;-140.43;86.92
30714;BME280;17465;47.934;33.430;2023-05-23T00:48:28;57326.20;;;-140.43;86.66
30714;BME280;17465;47.934;33.430;2023-05-23T00:51:00;57282.77;;;-140.43;86.65
30714;BME280;17465;47.934;33.430;2023-05-23T00:53:31;57282.77;;;-140.43;86.65
30714;BME280;17465;47.934;33.430;2023-05-23T00:56:03;57306.07;;;-140.43;87.48
30714;BME280;17465;47.934;33.430;2023-05-23T00:58:33;57296.54;;;-140.43;87.24
30714;BME280;17465;47.934;33.430;2023-05-23T01:01:04;57296.54;;;-140.43;87.24
30714;BME280;17465;47.934;33.430;2023-05-23T01:03:34;57269.00;;;-140.43;87.39
30714;BME280;17465;47.934;33.430;2023-05-23T01:06:06;57308.19;;;-140.43;86.60
30714;BME280;17465;47.934;33.430;2023-05-23T01:08:37;57308.19;;;-140.43;86.60
30714;BME280;17465;47.934;33.430;2023-05-23T01:11:16;57307.13;;;-140.43;86.40
30714;BME280;17465;47.934;33.430;2023-05-23T01:14:06;57298.66;;;-140.43;87.12
30714;BME280;17465;47.934;33.430;2023-05-23T01:16:43;57298.66;;;-140.43;87.34
30714;BME280;17465;47.934;33.430;2023-05-23T01:21:59;57310.31;;;-140.43;87.13
30714;BME280;17465;47.934;33.430;2023-05-23T01:24:46;57272.18;;;-140.43;87.50
30714;BME280;17465;47.934;33.430;2023-05-23T01:30:12;57289.13;;;-140.43;87.54
30714;BME280;17465;47.934;33.430;2023-05-23T01:32:43;57347.38;;;-140.43;88.09
30714;BME280;17465;47.934;33.430;2023-05-23T01:35:20;57298.66;;;-140.43;87.44
30714;BME280;17465;47.934;33.430;2023-05-23T01:37:46;57298.66;;;-140.43;87.44
30714;BME280;17465;47.934;33.430;2023-05-23T01:40:17;57288.07;;;-140.43;86.74
30714;BME280;17465;47.934;33.430;2023-05-23T01:42:47;57297.60;;;-140.43;87.91
30714;BME280;17465;47.934;33.430;2023-05-23T01:45:19;57319.84;;;-140.43;87.84
30714;BME280;17465;47.934;33.430;2023-05-23T01:47:50;57307.13;;;-140.43;88.47
30714;BME280;17465;47.934;33.430;2023-05-23T01:50:22;57307.13;;;-140.43;88.47
30714;BME280;17465;47.934;33.430;2023-05-23T01:52:54;57310.31;;;-140.43;88.42
30714;BME280;17465;47.934;33.430;2023-05-23T01:58:16;57310.31;;;-140.43;89.03
30714;BME280;17465;47.934;33.430;2023-05-23T02:00:47;57270.06;;;-140.43;88.88
30714;BME280;17465;47.934;33.430;2023-05-23T02:03:17;57282.77;;;-140.43;89.01
30714;BME280;17465;47.934;33.430;2023-05-23T02:05:48;57282.77;;;-140.43;89.01
30714;BME280;17465;47.934;33.430;2023-05-23T02:08:19;57290.18;;;-140.43;89.79
30714;BME280;17465;47.934;33.430;2023-05-23T02:10:49;57310.31;;;-140.43;88.91
30714;BME280;17465;47.934;33.430;2023-05-23T02:13:20;57310.31;;;-140.43;88.91
30714;BME280;17465;47.934;33.430;2023-05-23T02:15:50;57283.83;;;-140.43;89.05
30714;BME280;17465;47.934;33.430;2023-05-23T02:18:20;57302.89;;;-140.43;89.12
30714;BME280;17465;47.934;33.430;2023-05-23T02:20:51;57309.25;;;-140.43;89.33
30714;BME280;17465;47.934;33.430;2023-05-23T02:23:21;57291.25;;;-140.43;89.78
30714;BME280;17465;47.934;33.430;2023-05-23T02:25:52;57284.89;;;-140.43;89.87
30714;BME280;17465;47.934;33.430;2023-05-23T02:28:22;57284.89;;;-140.43;89.87
30714;BME280;17465;47.934;33.430;2023-05-23T02:30:52;57282.77;;;-140.43;90.44
30714;BME280;17465;47.934;33.430;2023-05-23T02:33:23;57283.83;;;-140.43;90.25
30714;BME280;17465;47.934;33.430;2023-05-23T02:35:53;57293.36;;;-140.43;90.62
30714;BME280;17465;47.934;33.430;2023-05-23T02:38:24;57312.43;;;-140.43;90.89
30714;BME280;17465;47.934;33.430;2023-05-23T02:40:54;57284.89;;;-140.43;90.37
30714;BME280;17465;47.934;33.430;2023-05-23T02:43:25;57295.48;;;-140.43;90.02
30714;BME280;17465;47.934;33.430;2023-05-23T02:45:56;57295.48;;;-140.43;90.27
30714;BME280;17465;47.934;33.430;2023-05-23T02:48:26;57295.48;;;-140.43;90.27
30714;BME280;17465;47.934;33.430;2023-05-23T02:50:56;57276.42;;;-140.43;88.87
30714;BME280;17465;47.934;33.430;2023-05-23T02:53:27;57291.25;;;-140.43;87.96
30714;BME280;17465;47.934;33.430;2023-05-23T02:55:57;57291.25;;;-140.43;87.96
30714;BME280;17465;47.934;33.430;2023-05-23T02:58:28;57295.48;;;-140.43;88.97
30714;BME280;17465;47.934;33.430;2023-05-23T03:00:59;57283.83;;;-140.43;88.97
30714;BME280;17465;47.934;33.430;2023-05-23T03:03:30;57283.83;;;-140.43;88.84
30714;BME280;17465;47.934;33.430;2023-05-23T03:06:02;57296.54;;;-140.43;89.27
30714;BME280;17465;47.934;33.430;2023-05-23T03:08:33;57296.54;;;-140.43;89.27
30714;BME280;17465;47.934;33.430;2023-05-23T03:11:04;57329.37;;;-140.43;88.42
30714;BME280;17465;47.934;33.430;2023-05-23T03:13:35;57323.02;;;-140.43;88.49
30714;BME280;17465;47.934;33.430;2023-05-23T03:16:05;57323.02;;;-140.43;88.49
30714;BME280;17465;47.934;33.430;2023-05-23T03:18:36;57291.25;;;-140.43;88.14
30714;BME280;17465;47.934;33.430;2023-05-23T03:21:06;57287.01;;;-140.43;88.23
30714;BME280;17465;47.934;33.430;2023-05-23T03:23:36;57320.90;;;-140.43;87.51
30714;BME280;17465;47.934;33.430;2023-05-23T03:26:07;57320.90;;;-140.43;87.51
30714;BME280;17465;47.934;33.430;2023-05-23T03:28:37;57336.79;;;-140.43;87.22
30714;BME280;17465;47.934;33.430;2023-05-23T03:31:08;57336.79;;;-140.43;87.22
30714;BME280;17465;47.934;33.430;2023-05-23T03:33:38;57314.55;;;-140.43;86.30
30714;BME280;17465;47.934;33.430;2023-05-23T03:36:09;57320.90;;;-140.43;86.23
30714;BME280;17465;47.934;33.430;2023-05-23T03:38:39;57314.55;;;-140.43;86.21
30714;BME280;17465;47.934;33.430;2023-05-23T03:41:10;57318.78;;;-140.43;86.03
30714;BME280;17465;47.934;33.430;2023-05-23T03:43:40;57318.78;;;-140.43;86.03
30714;BME280;17465;47.934;33.430;2023-05-23T03:46:10;57303.95;;;-140.43;85.59
30714;BME280;17465;47.934;33.430;2023-05-23T03:48:41;57328.31;;;-140.43;85.76
30714;BME280;17465;47.934;33.430;2023-05-23T03:54:11;57323.02;;;-140.43;84.07
30714;BME280;17465;47.934;33.430;2023-05-23T03:56:45;57323.02;;;-140.43;84.07
30714;BME280;17465;47.934;33.430;2023-05-23T03:59:17;57309.25;;;-140.43;83.25
30714;BME280;17465;47.934;33.430;2023-05-23T04:01:48;57349.49;;;-140.43;82.79
30714;BME280;17465;47.934;33.430;2023-05-23T04:04:18;57349.49;;;-140.43;82.79
30714;BME280;17465;47.934;33.430;2023-05-23T04:06:49;57302.89;;;-140.43;83.57
30714;BME280;17465;47.934;33.430;2023-05-23T04:09:19;57351.61;;;-140.43;83.86
30714;BME280;17465;47.934;33.430;2023-05-23T04:11:51;57335.73;;;-140.43;83.66
30714;BME280;17465;47.934;33.430;2023-05-23T04:14:21;57353.73;;;-140.43;83.23
30714;BME280;17465;47.934;33.430;2023-05-23T04:16:52;57344.20;;;-140.43;83.86
30714;BME280;17465;47.934;33.430;2023-05-23T04:19:22;57341.02;;;-140.43;83.30
30714;BME280;17465;47.934;33.430;2023-05-23T04:21:53;57342.08;;;-140.43;82.82
30714;BME280;17465;47.934;33.430;2023-05-23T04:24:23;57345.26;;;-140.43;83.89
30714;BME280;17465;47.934;33.430;2023-05-23T04:26:53;57359.03;;;-140.43;83.67
30714;BME280;17465;47.934;33.430;2023-05-23T04:29:23;57359.03;;;-140.43;83.67
30714;BME280;17465;47.934;33.430;2023-05-23T04:32:00;57378.09;;;-140.43;81.99
30714;BME280;17465;47.934;33.430;2023-05-23T04:34:31;57378.09;;;-140.43;81.99
30714;BME280;17465;47.934;33.430;2023-05-23T04:37:02;57363.26;;;-140.43;79.17
30714;BME280;17465;47.934;33.430;2023-05-23T04:39:32;57353.73;;;-140.43;80.78
30714;BME280;17465;47.934;33.430;2023-05-23T04:42:03;57353.73;;;-140.43;80.78
30714;BME280;17465;47.934;33.430;2023-05-23T04:44:33;57408.80;;;-140.43;79.92
30714;BME280;17465;47.934;33.430;2023-05-23T04:47:03;57408.80;;;-140.43;79.92
30714;BME280;17465;47.934;33.430;2023-05-23T04:49:37;57386.56;;;-140.43;77.16
30714;BME280;17465;47.934;33.430;2023-05-23T04:52:07;57400.33;;;-140.43;75.41
30714;BME280;17465;47.934;33.430;2023-05-23T04:54:38;57396.09;;;-140.43;75.00
30714;BME280;17465;47.934;33.430;2023-05-23T04:57:08;57427.87;;;-140.43;74.74
30714;BME280;17465;47.934;33.430;2023-05-23T04:59:38;57424.69;;;-140.43;74.61
30714;BME280;17465;47.934;33.430;2023-05-23T05:02:09;57416.21;;;-140.43;75.19
30714;BME280;17465;47.934;33.430;2023-05-23T05:04:39;57434.22;;;-140.43;73.58
30714;BME280;17465;47.934;33.430;2023-05-23T05:07:17;57429.98;;;-140.43;73.97
30714;BME280;17465;47.934;33.430;2023-05-23T05:09:47;57429.98;;;-140.43;73.97
30714;BME280;17465;47.934;33.430;2023-05-23T05:12:18;57422.57;;;-140.43;73.81
30714;BME280;17465;47.934;33.430;2023-05-23T05:14:48;57447.99;;;-140.43;70.01
30714;BME280;17465;47.934;33.430;2023-05-23T05:17:18;57421.51;;;-140.43;74.62
30714;BME280;17465;47.934;33.430;2023-05-23T05:19:49;57446.93;;;-140.43;74.65
30714;BME280;17465;47.934;33.430;2023-05-23T05:22:19;57446.93;;;-140.43;74.65
30714;BME280;17465;47.934;33.430;2023-05-23T05:24:49;57428.92;;;-140.43;74.50
30714;BME280;17465;47.934;33.430;2023-05-23T05:27:20;57470.23;;;-140.43;71.50
30714;BME280;17465;47.934;33.430;2023-05-23T05:29:50;57459.64;;;-140.43;72.27
30714;BME280;17465;47.934;33.430;2023-05-23T05:32:21;57494.59;;;-140.43;68.14
30714;BME280;17465;47.934;33.430;2023-05-23T05:34:54;57476.58;;;-140.43;70.13
30714;BME280;17465;47.934;33.430;2023-05-23T05:37:23;57477.64;;;-140.43;70.00
30714;BME280;17465;47.934;33.430;2023-05-23T05:39:56;57476.58;;;-140.43;71.31
30714;BME280;17465;47.934;33.430;2023-05-23T05:42:28;57465.99;;;-140.43;70.25
30714;BME280;17465;47.934;33.430;2023-05-23T05:44:58;57465.99;;;-140.43;70.25
30714;BME280;17465;47.934;33.430;2023-05-23T05:47:28;57470.23;;;-140.43;67.70
30714;BME280;17465;47.934;33.430;2023-05-23T05:50:04;57490.35;;;-140.43;69.18
30714;BME280;17465;47.934;33.430;2023-05-23T05:52:39;57490.35;;;-140.43;69.18
30714;BME280;17465;47.934;33.430;2023-05-23T05:55:32;57484.00;;;-140.43;68.64
30714;BME280;17465;47.934;33.430;2023-05-23T05:58:02;57484.00;;;-140.43;68.64
30714;BME280;17465;47.934;33.430;2023-05-23T06:00:55;57500.94;;;-140.43;65.68
30714;BME280;17465;47.934;33.430;2023-05-23T06:03:25;57517.89;;;-140.43;66.32
30714;BME280;17465;47.934;33.430;2023-05-23T06:05:56;57539.07;;;-140.43;64.44
30714;BME280;17465;47.934;33.430;2023-05-23T06:08:26;57539.07;;;-140.43;64.44
30714;BME280;17465;47.934;33.430;2023-05-23T06:10:57;57515.77;;;-140.43;65.19
30714;BME280;17465;47.934;33.430;2023-05-23T06:13:27;57485.05;;;-140.43;69.06
30714;BME280;17465;47.934;33.430;2023-05-23T06:15:58;57522.12;;;-140.43;66.86
30714;BME280;17465;47.934;33.430;2023-05-23T06:18:28;57522.12;;;-140.43;66.86
30714;BME280;17465;47.934;33.430;2023-05-23T06:20:59;57532.72;;;-140.43;64.56
30714;BME280;17465;47.934;33.430;2023-05-23T06:23:30;57532.72;;;-140.43;64.56
30714;BME280;17465;47.934;33.430;2023-05-23T06:26:00;57525.30;;;-140.43;67.71
30714;BME280;17465;47.934;33.430;2023-05-23T06:28:30;57504.12;;;-140.43;66.26
30714;BME280;17465;47.934;33.430;2023-05-23T06:31:01;57504.12;;;-140.43;66.26
30714;BME280;17465;47.934;33.430;2023-05-23T06:33:32;57553.90;;;-140.43;66.52
30714;BME280;17465;47.934;33.430;2023-05-23T06:36:02;57553.90;;;-140.43;66.52
30714;BME280;17465;47.934;33.430;2023-05-23T06:38:32;57499.88;;;-140.43;65.56
30714;BME280;17465;47.934;33.430;2023-05-23T06:41:03;57562.37;;;-140.43;65.89
30714;BME280;17465;47.934;33.430;2023-05-23T06:43:33;57562.37;;;-140.43;65.89
30714;BME280;17465;47.934;33.430;2023-05-23T06:46:04;57556.02;;;-140.43;65.89
30714;BME280;17465;47.934;33.430;2023-05-23T06:48:34;57547.54;;;-140.43;66.58
30714;BME280;17465;47.934;33.430;2023-05-23T06:51:05;57547.54;;;-140.43;66.58
30714;BME280;17465;47.934;33.430;2023-05-23T06:53:35;57557.08;;;-140.43;62.83
30714;BME280;17465;47.934;33.430;2023-05-23T06:56:05;57571.90;;;-140.43;63.03
30714;BME280;17465;47.934;33.430;2023-05-23T06:58:36;57571.90;;;-140.43;63.03
30714;BME280;17465;47.934;33.430;2023-05-23T07:01:07;57533.77;;;-140.43;65.58
30714;BME280;17465;47.934;33.430;2023-05-23T07:03:38;57540.13;;;-140.43;65.71
30714;BME280;17465;47.934;33.430;2023-05-23T07:06:08;57540.13;;;-140.43;65.71
30714;BME280;17465;47.934;33.430;2023-05-23T07:08:39;57541.19;;;-140.43;65.78
30714;BME280;17465;47.934;33.430;2023-05-23T07:11:12;57528.48;;;-140.43;65.82
30714;BME280;17465;47.934;33.430;2023-05-23T07:13:46;57598.38;;;-140.43;64.01
30714;BME280;17465;47.934;33.430;2023-05-23T07:16:16;57658.75;;;-140.43;59.75
30714;BME280;17465;47.934;33.430;2023-05-23T07:18:48;57658.75;;;-140.43;59.75
30714;BME280;17465;47.934;33.430;2023-05-23T07:21:18;57687.35;;;-140.43;52.56
30714;BME280;17465;47.934;33.430;2023-05-23T07:23:48;57686.29;;;-140.43;51.62
30714;BME280;17465;47.934;33.430;2023-05-23T07:26:20;57686.29;;;-140.43;51.62
30714;BME280;17465;47.934;33.430;2023-05-23T07:28:51;57758.32;;;-140.43;47.72
30714;BME280;17465;47.934;33.430;2023-05-23T07:31:24;57758.32;;;-140.43;47.72
30714;BME280;17465;47.934;33.430;2023-05-23T07:33:56;57765.73;;;-140.43;47.08
30714;BME280;17465;47.934;33.430;2023-05-23T07:36:49;57765.73;;;-140.43;47.08
30714;BME280;17465;47.934;33.430;2023-05-23T07:39:08;57782.68;;;-140.43;45.54
30714;BME280;17465;47.934;33.430;2023-05-23T07:41:41;57782.68;;;-140.43;45.54
30714;BME280;17465;47.934;33.430;2023-05-23T07:44:11;57848.35;;;-140.43;43.83
30714;BME280;17465;47.934;33.430;2023-05-23T07:46:48;57789.04;;;-140.43;42.55
30714;BME280;17465;47.934;33.430;2023-05-23T07:49:17;57789.04;;;-140.43;42.55
30714;BME280;17465;47.934;33.430;2023-05-23T07:51:47;57775.27;;;-140.43;44.40
30714;BME280;17465;47.934;33.430;2023-05-23T07:54:17;57760.44;;;-140.43;44.93
30714;BME280;17465;47.934;33.430;2023-05-23T07:56:55;57760.44;;;-140.43;44.93
30714;BME280;17465;47.934;33.430;2023-05-23T08:00:36;57772.09;;;-140.43;45.92
30714;BME280;17465;47.934;33.430;2023-05-23T08:02:47;57772.09;;;-140.43;45.92
30714;BME280;17465;47.934;33.430;2023-05-23T08:05:18;57689.47;;;-140.43;54.81
30714;BME280;17465;47.934;33.430;2023-05-23T08:07:57;57651.34;;;-140.43;50.81
30714;BME280;17465;47.934;33.430;2023-05-23T08:10:28;57669.34;;;-140.43;56.68
30714;BME280;17465;47.934;33.430;2023-05-23T08:13:14;57664.05;;;-140.43;51.25
30714;BME280;17465;47.934;33.430;2023-05-23T08:15:56;57750.90;;;-140.43;47.26
30714;BME280;17465;47.934;33.430;2023-05-23T08:18:27;57756.20;;;-140.43;51.13
30714;BME280;17465;47.934;33.430;2023-05-23T08:20:58;57702.18;;;-140.43;53.83
30714;BME280;17465;47.934;33.430;2023-05-23T08:23:28;57669.34;;;-140.43;52.16
30714;BME280;17465;47.934;33.430;2023-05-23T08:25:59;57669.34;;;-140.43;52.16
30714;BME280;17465;47.934;33.430;2023-05-23T08:28:29;57614.27;;;-140.43;52.26
30714;BME280;17465;47.934;33.430;2023-05-23T08:31:00;57614.27;;;-140.43;52.26
30714;BME280;17465;47.934;33.430;2023-05-23T08:33:30;57612.15;;;-140.43;53.66
30714;BME280;17465;47.934;33.430;2023-05-23T08:36:01;57608.98;;;-140.43;51.90
30714;BME280;17465;47.934;33.430;2023-05-23T08:38:33;57608.98;;;-140.43;51.90
30714;BME280;17465;47.934;33.430;2023-05-23T08:41:04;57630.16;;;-140.43;56.62
30714;BME280;17465;47.934;33.430;2023-05-23T08:43:37;57611.09;;;-140.43;59.87
30714;BME280;17465;47.934;33.430;2023-05-23T08:46:08;57615.33;;;-140.43;60.19
30714;BME280;17465;47.934;33.430;2023-05-23T08:48:39;57611.09;;;-140.43;60.07
30714;BME280;17465;47.934;33.430;2023-05-23T08:51:13;57611.09;;;-140.43;60.07
30714;BME280;17465;47.934;33.430;2023-05-23T08:53:47;57584.61;;;-140.43;62.23
30714;BME280;17465;47.934;33.430;2023-05-23T08:56:23;57615.33;;;-140.43;59.83
30714;BME280;17465;47.934;33.430;2023-05-23T08:59:27;57615.33;;;-140.43;59.83
30714;BME280;17465;47.934;33.430;2023-05-23T09:01:59;57643.93;;;-140.43;56.55
30714;BME280;17465;47.934;33.430;2023-05-23T09:04:34;57635.45;;;-140.43;58.56
30714;BME280;17465;47.934;33.430;2023-05-23T09:07:06;57635.45;;;-140.43;58.56
30714;BME280;17465;47.934;33.430;2023-05-23T09:12:33;57650.28;;;-140.43;55.32
30714;BME280;17465;47.934;33.430;2023-05-23T09:14:55;57593.09;;;-140.43;60.76
30714;BME280;17465;47.934;33.430;2023-05-23T09:20:52;55947.59;;;-140.43;57.62
30714;BME280;17465;47.934;33.430;2023-05-23T09:23:28;57636.51;;;-140.43;59.03
30714;BME280;17465;47.934;33.430;2023-05-23T09:26:05;57587.79;;;-140.43;57.59
30714;BME280;17465;47.934;33.430;2023-05-23T09:28:37;57582.50;;;-140.43;60.09
30714;BME280;17465;47.934;33.430;2023-05-23T09:31:08;57582.50;;;-140.43;60.09
30714;BME280;17465;47.934;33.430;2023-05-23T09:33:48;57589.91;;;-140.43;65.54
30714;BME280;17465;47.934;33.430;2023-05-23T09:36:21;57589.91;;;-140.43;65.54
30714;BME280;17465;47.934;33.430;2023-05-23T09:38:52;57596.27;;;-140.43;67.70
30714;BME280;17465;47.934;33.430;2023-05-23T09:41:25;57577.20;;;-140.43;69.44
30714;BME280;17465;47.934;33.430;2023-05-23T09:44:10;57558.13;;;-140.43;72.00
30714;BME280;17465;47.934;33.430;2023-05-23T09:46:40;57554.96;;;-140.43;70.53
30714;BME280;17465;47.934;33.430;2023-05-23T09:49:16;57590.97;;;-140.43;69.34
30714;BME280;17465;47.934;33.430;2023-05-23T09:52:00;57581.44;;;-140.43;71.33
30714;BME280;17465;47.934;33.430;2023-05-23T09:54:31;57606.86;;;-140.43;64.49
30714;BME280;17465;47.934;33.430;2023-05-23T09:57:02;57582.50;;;-140.43;66.75
30714;BME280;17465;47.934;33.430;2023-05-23T09:59:43;57611.09;;;-140.43;63.22
30714;BME280;17465;47.934;33.430;2023-05-23T10:02:15;57577.20;;;-140.43;65.79
30714;BME280;17465;47.934;33.430;2023-05-23T10:04:47;57628.04;;;-140.43;66.31
30714;BME280;17465;47.934;33.430;2023-05-23T10:07:20;57594.14;;;-140.43;66.29
30714;BME280;17465;47.934;33.430;2023-05-23T10:09:55;57625.92;;;-140.43;62.52
30714;BME280;17465;47.934;33.430;2023-05-23T10:12:44;57620.62;;;-140.43;62.41
30714;BME280;17465;47.934;33.430;2023-05-23T10:15:16;57613.21;;;-140.43;60.34
30714;BME280;17465;47.934;33.430;2023-05-23T10:18:02;57611.09;;;-140.43;60.28
30714;BME280;17465;47.934;33.430;2023-05-23T10:20:34;57605.80;;;-140.43;61.82
30714;BME280;17465;47.934;33.430;2023-05-23T10:23:05;57614.27;;;-140.43;61.26
30714;BME280;17465;47.934;33.430;2023-05-23T10:25:37;57608.98;;;-140.43;60.77
30714;BME280;17465;47.934;33.430;2023-05-23T10:28:08;57608.98;;;-140.43;60.77
30714;BME280;17465;47.934;33.430;2023-05-23T10:30:39;57628.04;;;-140.43;56.68
30714;BME280;17465;47.934;33.430;2023-05-23T10:33:28;57638.63;;;-140.43;57.24
30714;BME280;17465;47.934;33.430;2023-05-23T10:36:32;57681.00;;;-140.43;56.27
30714;BME280;17465;47.934;33.430;2023-05-23T10:42:07;57811.28;;;-140.43;45.49
30714;BME280;17465;47.934;33.430;2023-05-23T10:44:32;57888.60;;;-140.43;44.31
30714;BME280;17465;47.934;33.430;2023-05-23T10:50:12;55849.13;;;-140.43;39.93
30714;BME280;17465;47.934;33.430;2023-05-23T10:53:04;57973.34;;;-140.43;39.98
30714;BME280;17465;47.934;33.430;2023-05-23T10:55:39;58028.42;;;-140.43;38.21
30714;BME280;17465;47.934;33.430;2023-05-23T11:05:20;57928.85;;;-140.43;38.87
30714;BME280;17465;47.934;33.430;2023-05-23T11:08:12;58001.94;;;-140.43;37.78
30714;BME280;17465;47.934;33.430;2023-05-23T11:11:03;57882.25;;;-140.43;40.57
30714;BME280;17465;47.934;33.430;2023-05-23T11:13:59;57809.16;;;-140.43;44.05
30714;BME280;17465;47.934;33.430;2023-05-23T11:16:46;57809.16;;;-140.43;44.05
30714;BME280;17465;47.934;33.430;2023-05-23T11:20:03;57771.03;;;-140.43;47.41
30714;BME280;17465;47.934;33.430;2023-05-23T11:22:35;57723.36;;;-140.43;48.81
30714;BME280;17465;47.934;33.430;2023-05-23T11:25:08;57710.65;;;-140.43;49.29
30714;BME280;17465;47.934;33.430;2023-05-23T11:27:40;57697.95;;;-140.43;50.84
30714;BME280;17465;47.934;33.430;2023-05-23T11:30:15;57662.99;;;-140.43;54.86
30714;BME280;17465;47.934;33.430;2023-05-23T11:32:54;57616.39;;;-140.43;58.78
30714;BME280;17465;47.934;33.430;2023-05-23T11:35:26;57616.39;;;-140.43;58.78
30714;BME280;17465;47.934;33.430;2023-05-23T11:37:56;57566.61;;;-140.43;62.26
30714;BME280;17465;47.934;33.430;2023-05-23T11:40:36;57566.61;;;-140.43;62.26
30714;BME280;17465;47.934;33.430;2023-05-23T11:49:36;57579.32;;;-140.43;65.97
30714;BME280;17465;47.934;33.430;2023-05-23T11:52:07;57566.61;;;-140.43;65.35
30714;BME280;17465;47.934;33.430;2023-05-23T11:54:50;57635.45;;;-140.43;65.55
30714;BME280;17465;47.934;33.430;2023-05-23T11:57:22;57638.63;;;-140.43;64.46
30714;BME280;17465;47.934;33.430;2023-05-23T11:59:53;57638.63;;;-140.43;64.46
30714;BME280;17465;47.934;33.430;2023-05-23T12:02:27;57594.14;;;-140.43;65.04
30714;BME280;17465;47.934;33.430;2023-05-23T12:05:05;57640.75;;;-140.43;66.08
30714;BME280;17465;47.934;33.430;2023-05-23T12:07:44;57566.61;;;-140.43;66.23
30714;BME280;17465;47.934;33.430;2023-05-23T12:10:25;57581.44;;;-140.43;67.12
30714;BME280;17465;47.934;33.430;2023-05-23T12:12:54;57557.08;;;-140.43;70.17
30714;BME280;17465;47.934;33.430;2023-05-23T12:15:26;57557.08;;;-140.43;70.17
30714;BME280;17465;47.934;33.430;2023-05-23T12:17:56;57541.19;;;-140.43;70.26
30714;BME280;17465;47.934;33.430;2023-05-23T12:20:26;57557.08;;;-140.43;70.99
30714;BME280;17465;47.934;33.430;2023-05-23T12:22:57;57603.68;;;-140.43;65.73
30714;BME280;17465;47.934;33.430;2023-05-23T12:25:28;57593.09;;;-140.43;65.57
30714;BME280;17465;47.934;33.430;2023-05-23T12:27:59;57593.09;;;-140.43;65.57
30714;BME280;17465;47.934;33.430;2023-05-23T12:30:39;57597.32;;;-140.43;64.93
30714;BME280;17465;47.934;33.430;2023-05-23T12:33:06;57602.62;;;-140.43;64.45
30714;BME280;17465;47.934;33.430;2023-05-23T12:35:41;57588.85;;;-140.43;63.91
30714;BME280;17465;47.934;33.430;2023-05-23T12:38:14;57608.98;;;-140.43;66.62
30714;BME280;17465;47.934;33.430;2023-05-23T12:40:44;57608.98;;;-140.43;66.62
30714;BME280;17465;47.934;33.430;2023-05-23T12:43:15;57595.21;;;-140.43;66.27
30714;BME280;17465;47.934;33.430;2023-05-23T12:45:45;57592.03;;;-140.43;66.36
30714;BME280;17465;47.934;33.430;2023-05-23T12:48:16;57595.21;;;-140.43;65.21
30714;BME280;17465;47.934;33.430;2023-05-23T12:50:47;57570.85;;;-140.43;65.93
30714;BME280;17465;47.934;33.430;2023-05-23T12:53:17;57574.02;;;-140.43;66.85
30714;BME280;17465;47.934;33.430;2023-05-23T12:55:47;57586.73;;;-140.43;66.98
30714;BME280;17465;47.934;33.430;2023-05-23T12:58:18;57564.49;;;-140.43;66.87
30714;BME280;17465;47.934;33.430;2023-05-23T13:00:48;57597.32;;;-140.43;66.20
30714;BME280;17465;47.934;33.430;2023-05-23T13:03:19;57563.43;;;-140.43;66.16
30714;BME280;17465;47.934;33.430;2023-05-23T13:05:50;57561.31;;;-140.43;67.03
30714;BME280;17465;47.934;33.430;2023-05-23T13:08:21;57554.96;;;-140.43;68.96
30714;BME280;17465;47.934;33.430;2023-05-23T13:10:53;57561.31;;;-140.43;68.67
30714;BME280;17465;47.934;33.430;2023-05-23T13:13:24;57561.31;;;-140.43;68.67
30714;BME280;17465;47.934;33.430;2023-05-23T13:15:55;57559.20;;;-140.43;68.66
30714;BME280;17465;47.934;33.430;2023-05-23T13:18:26;57592.03;;;-140.43;67.16
30714;BME280;17465;47.934;33.430;2023-05-23T13:21:00;57608.98;;;-140.43;67.08
30714;BME280;17465;47.934;33.430;2023-05-23T13:23:37;57608.98;;;-140.43;67.08
30714;BME280;17465;47.934;33.430;2023-05-23T13:26:08;57596.27;;;-140.43;65.29
30714;BME280;17465;47.934;33.430;2023-05-23T13:28:48;57604.74;;;-140.43;64.62
30714;BME280;17465;47.934;33.430;2023-05-23T13:31:15;57604.74;;;-140.43;64.62
30714;BME280;17465;47.934;33.430;2023-05-23T13:36:27;57632.27;;;-140.43;62.08
30714;BME280;17465;47.934;33.430;2023-05-23T13:42:27;57615.33;;;-140.43;62.63